No particular awareness of the weather is required.    There are no Weather-warnings


Meteo18 Weather Cam more information Meteo18 Weather Cam


Thunder radar more information blitzortung!


Rain radar more information rain snow radar


Visit our other weather sites:

Template documentation
and downloads

And another site



Weather Underground History page Text

Daily Summary for February 4, 2017 Units:  Both    English   Metric
« Previous Day
Next Day »
Daily Weekly Monthly Yearly Custom
  High: Low: Average:
Temperature: TemperatureC °F /  -17.8 °C 2.9 °F /  -16.2 °C 6 °F /  -14.4 °C
Dew Point: DewpointC °F /  -17.8 °C 1.4 °F /  -17 °C 4 °F /  -15.6 °C
Humidity: Humidity % 73 % 86 %
Wind Speed: WindSpeedKMH mph /  0 km/h - 13.5 mph /  21.7 km/h
Wind Gust: WindSpeedGustKMH mph /  0 km/h - -
Wind:- - SSW
Pressure: PressurehPa in /  0 hPa 989.1 in /  33490.9 hPa -
Precipitation: 15.5 in /  393.7 mm    
Historical Graphs
 
 
Tabular Data for February 4, 2017
Time Temperature Dew Point Pressure Wind Wind Speed Wind Gust Humidity Rainfall Rate (Hourly)
TemperatureC °F /  -17.8 °C DewpointC °F /  -17.8 °C PressurehPa in /  0 hPa Calm     Humidity % HourlyPrecipMM in /  0 mm
00:02 4.9 °F /  -15.1 °C 3.4 °F /  -15.9 °C 1006.3 in /  34073.3 hPa ESE 6.4 mph /  10.3 km/h 12.9 mph /  20.8 km/h 90 % 0.0 in /  0 mm
00:07 4.9 °F /  -15.1 °C 3.2 °F /  -16 °C 1006.3 in /  34073.3 hPa SSE 3.2 mph /  5.1 km/h 12.9 mph /  20.8 km/h 89 % 0.0 in /  0 mm
00:12 4.9 °F /  -15.1 °C 3.2 °F /  -16 °C 1006.0 in /  34063.2 hPa SSE 6.4 mph /  10.3 km/h 11.3 mph /  18.2 km/h 89 % 0.0 in /  0 mm
00:17 4.9 °F /  -15.1 °C 3.2 °F /  -16 °C 1006.0 in /  34063.2 hPa SSE 4.8 mph /  7.7 km/h 11.3 mph /  18.2 km/h 89 % 0.0 in /  0 mm
00:22 4.9 °F /  -15.1 °C 3.2 °F /  -16 °C 1006.0 in /  34063.2 hPa SSE 1.6 mph /  2.6 km/h 11.3 mph /  18.2 km/h 89 % 0.0 in /  0 mm
00:27 4.9 °F /  -15.1 °C 3.2 °F /  -16 °C 1006.0 in /  34063.2 hPa SSE 1.6 mph /  2.6 km/h 11.3 mph /  18.2 km/h 89 % 0.0 in /  0 mm
00:32 4.9 °F /  -15.1 °C 3.2 °F /  -16 °C 1005.6 in /  34049.6 hPa SSE 1.6 mph /  2.6 km/h 11.3 mph /  18.2 km/h 89 % 0.0 in /  0 mm
00:42 4.9 °F /  -15.1 °C 3.2 °F /  -16 °C 1005.0 in /  34029.3 hPa SE 3.2 mph /  5.1 km/h 11.3 mph /  18.2 km/h 89 % 0.0 in /  0 mm
00:47 4.9 °F /  -15.1 °C 3.2 °F /  -16 °C 1004.6 in /  34015.8 hPa SE 1.6 mph /  2.6 km/h 11.3 mph /  18.2 km/h 89 % 0.0 in /  0 mm
00:52 4.9 °F /  -15.1 °C 3.1 °F /  -16.1 °C 1004.3 in /  34005.6 hPa ESE 8.0 mph /  12.9 km/h 11.3 mph /  18.2 km/h 88 % 0.0 in /  0 mm
00:57 5.1 °F /  -14.9 °C 3.3 °F /  -15.9 °C 1003.9 in /  33992.1 hPa ESE 3.2 mph /  5.1 km/h 11.3 mph /  18.2 km/h 88 % 0.0 in /  0 mm
01:02 5.2 °F /  -14.9 °C 3.2 °F /  -16 °C 1003.6 in /  33981.9 hPa ESE 3.2 mph /  5.1 km/h 14.5 mph /  23.3 km/h 87 % 0.0 in /  0 mm
01:07 5.2 °F /  -14.9 °C 3.2 °F /  -16 °C 1003.9 in /  33992.1 hPa SE 4.8 mph /  7.7 km/h 14.5 mph /  23.3 km/h 87 % 0.0 in /  0 mm
01:12 5.1 °F /  -14.9 °C 3.3 °F /  -15.9 °C 1003.6 in /  33981.9 hPa SE 9.7 mph /  15.6 km/h 12.9 mph /  20.8 km/h 88 % 0.0 in /  0 mm
01:17 5.1 °F /  -14.9 °C 3.3 °F /  -15.9 °C 1003.6 in /  33981.9 hPa SSE 3.2 mph /  5.1 km/h 11.3 mph /  18.2 km/h 88 % 0.0 in /  0 mm
01:22 5.1 °F /  -14.9 °C 3.1 °F /  -16.1 °C 1003.3 in /  33971.7 hPa SE 4.8 mph /  7.7 km/h 11.3 mph /  18.2 km/h 87 % 0.0 in /  0 mm
01:27 5.2 °F /  -14.9 °C 3.2 °F /  -16 °C 1002.9 in /  33958.2 hPa SE 9.7 mph /  15.6 km/h 11.3 mph /  18.2 km/h 87 % 0.0 in /  0 mm
01:32 5.2 °F /  -14.9 °C 3.2 °F /  -16 °C 1002.6 in /  33948 hPa SE 6.4 mph /  10.3 km/h 12.9 mph /  20.8 km/h 87 % 0.0 in /  0 mm
01:37 5.3 °F /  -14.8 °C 3.1 °F /  -16.1 °C 1002.3 in /  33937.9 hPa SE 14.5 mph /  23.3 km/h 14.5 mph /  23.3 km/h 86 % 0.0 in /  0 mm
01:42 5.3 °F /  -14.8 °C 3.1 °F /  -16.1 °C 1002.6 in /  33948 hPa SE 6.4 mph /  10.3 km/h 14.5 mph /  23.3 km/h 86 % 0.0 in /  0 mm
01:47 5.2 °F /  -14.9 °C 3.1 °F /  -16.1 °C 1002.6 in /  33948 hPa ESE 8.0 mph /  12.9 km/h 14.5 mph /  23.3 km/h 86 % 0.0 in /  0 mm
01:52 5.2 °F /  -14.9 °C 3.1 °F /  -16.1 °C 1002.6 in /  33948 hPa SSE 6.4 mph /  10.3 km/h 14.5 mph /  23.3 km/h 86 % 0.0 in /  0 mm
01:57 5.1 °F /  -14.9 °C 3.0 °F /  -16.1 °C 1002.6 in /  33948 hPa South 6.4 mph /  10.3 km/h 14.5 mph /  23.3 km/h 86 % 0.0 in /  0 mm
02:02 5.1 °F /  -14.9 °C 3.1 °F /  -16.1 °C 1002.6 in /  33948 hPa SE 8.0 mph /  12.9 km/h 11.3 mph /  18.2 km/h 87 % 0.0 in /  0 mm
02:07 5.1 °F /  -14.9 °C 3.1 °F /  -16.1 °C 1002.6 in /  33948 hPa SE 6.4 mph /  10.3 km/h 11.3 mph /  18.2 km/h 87 % 0.0 in /  0 mm
02:12 5.1 °F /  -14.9 °C 3.1 °F /  -16.1 °C 1002.3 in /  33937.9 hPa ESE 4.8 mph /  7.7 km/h 11.3 mph /  18.2 km/h 87 % 0.0 in /  0 mm
02:17 5.1 °F /  -14.9 °C 3.1 °F /  -16.1 °C 1001.9 in /  33924.3 hPa SSE 1.6 mph /  2.6 km/h 11.3 mph /  18.2 km/h 87 % 0.0 in /  0 mm
02:22 5.1 °F /  -14.9 °C 3.1 °F /  -16.1 °C 1001.9 in /  33924.3 hPa SSE 1.6 mph /  2.6 km/h 9.7 mph /  15.6 km/h 87 % 0.0 in /  0 mm
02:27 5.1 °F /  -14.9 °C 3.1 °F /  -16.1 °C 1001.9 in /  33924.3 hPa SE 4.8 mph /  7.7 km/h 8.0 mph /  12.9 km/h 87 % 0.0 in /  0 mm
02:32 5.1 °F /  -14.9 °C 3.1 °F /  -16.1 °C 1001.9 in /  33924.3 hPa Calm   14.5 mph /  23.3 km/h 87 % 0.0 in /  0 mm
02:37 5.1 °F /  -14.9 °C 3.1 °F /  -16.1 °C 1001.6 in /  33914.2 hPa SE 4.8 mph /  7.7 km/h 14.5 mph /  23.3 km/h 87 % 0.0 in /  0 mm
02:42 5.1 °F /  -14.9 °C 3.1 °F /  -16.1 °C 1001.2 in /  33900.6 hPa SE 6.4 mph /  10.3 km/h 9.7 mph /  15.6 km/h 87 % 0.0 in /  0 mm
02:47 5.2 °F /  -14.9 °C 3.2 °F /  -16 °C 1000.2 in /  33866.8 hPa ESE 11.3 mph /  18.2 km/h 11.3 mph /  18.2 km/h 87 % 0.0 in /  0 mm
02:52 5.4 °F /  -14.8 °C 3.2 °F /  -16 °C 1000.6 in /  33880.3 hPa SSE 8.0 mph /  12.9 km/h 20.9 mph /  33.6 km/h 86 % 0.0 in /  0 mm
02:57 5.6 °F /  -14.7 °C 3.4 °F /  -15.9 °C 1000.6 in /  33880.3 hPa East 14.5 mph /  23.3 km/h 22.5 mph /  36.2 km/h 86 % 0.0 in /  0 mm
03:02 5.7 °F /  -14.6 °C 3.4 °F /  -15.9 °C 1000.6 in /  33880.3 hPa SSE 4.8 mph /  7.7 km/h 22.5 mph /  36.2 km/h 85 % 0.0 in /  0 mm
03:07 5.7 °F /  -14.6 °C 3.4 °F /  -15.9 °C 1000.9 in /  33890.5 hPa SSE 1.6 mph /  2.6 km/h 17.7 mph /  28.5 km/h 85 % 0.0 in /  0 mm
03:12 5.7 °F /  -14.6 °C 3.4 °F /  -15.9 °C 1000.9 in /  33890.5 hPa SSE 3.2 mph /  5.1 km/h 17.7 mph /  28.5 km/h 85 % 0.0 in /  0 mm
03:17 5.8 °F /  -14.6 °C 3.3 °F /  -15.9 °C 1000.6 in /  33880.3 hPa SE 1.6 mph /  2.6 km/h 14.5 mph /  23.3 km/h 84 % 0.0 in /  0 mm
03:22 5.8 °F /  -14.6 °C 3.3 °F /  -15.9 °C 1000.6 in /  33880.3 hPa SE 4.8 mph /  7.7 km/h 14.5 mph /  23.3 km/h 84 % 0.0 in /  0 mm
03:27 5.9 °F /  -14.5 °C 3.2 °F /  -16 °C 1000.6 in /  33880.3 hPa SSE 3.2 mph /  5.1 km/h 12.9 mph /  20.8 km/h 83 % 0.0 in /  0 mm
03:32 5.9 °F /  -14.5 °C 3.2 °F /  -16 °C 1000.6 in /  33880.3 hPa SSE 4.8 mph /  7.7 km/h 16.1 mph /  25.9 km/h 83 % 0.0 in /  0 mm
03:37 5.9 °F /  -14.5 °C 3.2 °F /  -16 °C 1000.2 in /  33866.8 hPa SE 1.6 mph /  2.6 km/h 16.1 mph /  25.9 km/h 83 % 0.0 in /  0 mm
03:42 6.0 °F /  -14.4 °C 3.2 °F /  -16 °C 1000.2 in /  33866.8 hPa SE 9.7 mph /  15.6 km/h 12.9 mph /  20.8 km/h 82 % 0.0 in /  0 mm
03:47 6.0 °F /  -14.4 °C 3.2 °F /  -16 °C 1000.2 in /  33866.8 hPa ESE 11.3 mph /  18.2 km/h 16.1 mph /  25.9 km/h 82 % 0.0 in /  0 mm
03:52 6.1 °F /  -14.4 °C 3.3 °F /  -15.9 °C 999.9 in /  33856.6 hPa SE 6.4 mph /  10.3 km/h 19.3 mph /  31.1 km/h 82 % 0.0 in /  0 mm
03:57 5.9 °F /  -14.5 °C 3.1 °F /  -16.1 °C 999.9 in /  33856.6 hPa ESE 4.8 mph /  7.7 km/h 19.3 mph /  31.1 km/h 82 % 0.0 in /  0 mm
04:02 5.9 °F /  -14.5 °C 3.2 °F /  -16 °C 999.9 in /  33856.6 hPa SE 6.4 mph /  10.3 km/h 14.5 mph /  23.3 km/h 83 % 0.0 in /  0 mm
04:07 5.8 °F /  -14.6 °C 3.1 °F /  -16.1 °C 999.9 in /  33856.6 hPa ESE 6.4 mph /  10.3 km/h 14.5 mph /  23.3 km/h 83 % 0.0 in /  0 mm
04:12 5.8 °F /  -14.6 °C 3.3 °F /  -15.9 °C 999.9 in /  33856.6 hPa SE 12.9 mph /  20.8 km/h 19.3 mph /  31.1 km/h 84 % 0.3 in /  7.62 mm
04:17 5.7 °F /  -14.6 °C 3.4 °F /  -15.9 °C 999.5 in /  33843.1 hPa ESE 14.5 mph /  23.3 km/h 20.9 mph /  33.6 km/h 85 % 0.5 in /  12.7 mm
04:22 5.6 °F /  -14.7 °C 3.4 °F /  -15.9 °C 999.2 in /  33832.9 hPa SE 9.7 mph /  15.6 km/h 30.6 mph /  49.2 km/h 86 % 1.0 in /  25.4 mm
04:27 5.3 °F /  -14.8 °C 3.5 °F /  -15.8 °C 999.2 in /  33832.9 hPa ESE 4.8 mph /  7.7 km/h 30.6 mph /  49.2 km/h 88 % 1.3 in /  33.02 mm
04:32 5.2 °F /  -14.9 °C 3.5 °F /  -15.8 °C 999.2 in /  33832.9 hPa SE 12.9 mph /  20.8 km/h 30.6 mph /  49.2 km/h 89 % 1.5 in /  38.1 mm
04:37 5.1 °F /  -14.9 °C 3.4 °F /  -15.9 °C 999.2 in /  33832.9 hPa East 16.1 mph /  25.9 km/h 22.5 mph /  36.2 km/h 89 % 1.8 in /  45.72 mm
04:42 5.1 °F /  -14.9 °C 3.6 °F /  -15.8 °C 998.9 in /  33822.8 hPa SSE 12.9 mph /  20.8 km/h 22.5 mph /  36.2 km/h 90 % 2.3 in /  58.42 mm
04:47 5.0 °F /  -15 °C 3.7 °F /  -15.7 °C 998.5 in /  33809.2 hPa ESE 6.4 mph /  10.3 km/h 16.1 mph /  25.9 km/h 91 % 2.5 in /  63.5 mm
04:52 5.0 °F /  -15 °C 3.7 °F /  -15.7 °C 998.5 in /  33809.2 hPa ESE 12.9 mph /  20.8 km/h 16.1 mph /  25.9 km/h 91 % 2.8 in /  71.12 mm
04:57 5.0 °F /  -15 °C 3.7 °F /  -15.7 °C 998.2 in /  33799.1 hPa SE 8.0 mph /  12.9 km/h 22.5 mph /  36.2 km/h 91 % 3.3 in /  83.82 mm
05:02 4.9 °F /  -15.1 °C 3.7 °F /  -15.7 °C 997.9 in /  33788.9 hPa SE 4.8 mph /  7.7 km/h 22.5 mph /  36.2 km/h 92 % 3.3 in /  83.82 mm
05:12 4.9 °F /  -15.1 °C 3.9 °F /  -15.6 °C 997.9 in /  33788.9 hPa SE 16.1 mph /  25.9 km/h 16.1 mph /  25.9 km/h 93 % 3.3 in /  83.82 mm
05:17 5.1 °F /  -14.9 °C 3.9 °F /  -15.6 °C 997.9 in /  33788.9 hPa SE 12.9 mph /  20.8 km/h 17.7 mph /  28.5 km/h 92 % 3.0 in /  76.2 mm
05:22 5.1 °F /  -14.9 °C 3.9 °F /  -15.6 °C 997.5 in /  33775.4 hPa SE 12.9 mph /  20.8 km/h 19.3 mph /  31.1 km/h 92 % 2.8 in /  71.12 mm
05:27 5.2 °F /  -14.9 °C 4.0 °F /  -15.6 °C 997.5 in /  33775.4 hPa SE 16.1 mph /  25.9 km/h 20.9 mph /  33.6 km/h 92 % 2.8 in /  71.12 mm
05:37 5.4 °F /  -14.8 °C 4.2 °F /  -15.4 °C 997.2 in /  33765.2 hPa SSE 14.5 mph /  23.3 km/h 29.0 mph /  46.7 km/h 92 % 2.5 in /  63.5 mm
05:42 5.4 °F /  -14.8 °C 4.2 °F /  -15.4 °C 997.2 in /  33765.2 hPa SE 16.1 mph /  25.9 km/h 29.0 mph /  46.7 km/h 92 % 2.3 in /  58.42 mm
05:47 5.5 °F /  -14.7 °C 4.3 °F /  -15.4 °C 996.8 in /  33751.6 hPa SE 9.7 mph /  15.6 km/h 29.0 mph /  46.7 km/h 92 % 2.3 in /  58.42 mm
05:52 5.4 °F /  -14.8 °C 4.2 °F /  -15.4 °C 996.8 in /  33751.6 hPa East 11.3 mph /  18.2 km/h 27.4 mph /  44.1 km/h 92 % 2.3 in /  58.42 mm
05:57 5.4 °F /  -14.8 °C 4.2 °F /  -15.4 °C 996.8 in /  33751.6 hPa SE 9.7 mph /  15.6 km/h 25.7 mph /  41.4 km/h 92 % 2.0 in /  50.8 mm
06:02 5.5 °F /  -14.7 °C 4.3 °F /  -15.4 °C 996.8 in /  33751.6 hPa SSE 12.9 mph /  20.8 km/h 25.7 mph /  41.4 km/h 92 % 1.8 in /  45.72 mm
06:07 5.5 °F /  -14.7 °C 4.3 °F /  -15.4 °C 996.8 in /  33751.6 hPa SSE 6.4 mph /  10.3 km/h 25.7 mph /  41.4 km/h 92 % 1.8 in /  45.72 mm
06:12 5.4 °F /  -14.8 °C 4.4 °F /  -15.3 °C 996.5 in /  33741.5 hPa SSE 9.7 mph /  15.6 km/h 22.5 mph /  36.2 km/h 93 % 1.8 in /  45.72 mm
06:17 5.5 °F /  -14.7 °C 4.5 °F /  -15.3 °C 996.5 in /  33741.5 hPa SSE 8.0 mph /  12.9 km/h 22.5 mph /  36.2 km/h 93 % 1.5 in /  38.1 mm
06:22 5.7 °F /  -14.6 °C 4.7 °F /  -15.2 °C 996.2 in /  33731.3 hPa South 16.1 mph /  25.9 km/h 22.5 mph /  36.2 km/h 93 % 1.5 in /  38.1 mm
06:27 5.8 °F /  -14.6 °C 4.8 °F /  -15.1 °C 996.2 in /  33731.3 hPa SSE 14.5 mph /  23.3 km/h 29.0 mph /  46.7 km/h 93 % 1.5 in /  38.1 mm
06:32 5.9 °F /  -14.5 °C 4.7 °F /  -15.2 °C 995.8 in /  33717.8 hPa SE 11.3 mph /  18.2 km/h 29.0 mph /  46.7 km/h 92 % 1.5 in /  38.1 mm
06:37 6.1 °F /  -14.4 °C 4.9 °F /  -15.1 °C 995.8 in /  33717.8 hPa SSW 12.9 mph /  20.8 km/h 29.0 mph /  46.7 km/h 92 % 1.5 in /  38.1 mm
06:42 6.2 °F /  -14.3 °C 5.0 °F /  -15 °C 995.5 in /  33707.6 hPa SE 8.0 mph /  12.9 km/h 27.4 mph /  44.1 km/h 92 % 1.5 in /  38.1 mm
06:47 6.2 °F /  -14.3 °C 5.2 °F /  -14.9 °C 995.1 in /  33694.1 hPa SSE 9.7 mph /  15.6 km/h 25.7 mph /  41.4 km/h 93 % 1.3 in /  33.02 mm
06:52 6.3 °F /  -14.3 °C 5.3 °F /  -14.8 °C 995.1 in /  33694.1 hPa South 16.1 mph /  25.9 km/h 25.7 mph /  41.4 km/h 93 % 1.5 in /  38.1 mm
07:02 6.4 °F /  -14.2 °C 5.2 °F /  -14.9 °C 994.8 in /  33683.9 hPa SSE 8.0 mph /  12.9 km/h 25.7 mph /  41.4 km/h 92 % 1.0 in /  25.4 mm
07:07 6.4 °F /  -14.2 °C 5.2 °F /  -14.9 °C 994.5 in /  33673.8 hPa SSE 3.2 mph /  5.1 km/h 20.9 mph /  33.6 km/h 92 % 1.0 in /  25.4 mm
07:12 6.4 °F /  -14.2 °C 5.2 °F /  -14.9 °C 994.5 in /  33673.8 hPa South 4.8 mph /  7.7 km/h 20.9 mph /  33.6 km/h 92 % 0.8 in /  20.32 mm
07:17 6.4 °F /  -14.2 °C 5.0 °F /  -15 °C 994.1 in /  33660.2 hPa ESE 6.4 mph /  10.3 km/h 17.7 mph /  28.5 km/h 91 % 0.8 in /  20.32 mm
07:22 6.4 °F /  -14.2 °C 5.0 °F /  -15 °C 994.1 in /  33660.2 hPa SSW 8.0 mph /  12.9 km/h 17.7 mph /  28.5 km/h 91 % 0.5 in /  12.7 mm
07:27 6.4 °F /  -14.2 °C 5.0 °F /  -15 °C 994.1 in /  33660.2 hPa ESE 9.7 mph /  15.6 km/h 19.3 mph /  31.1 km/h 91 % 0.5 in /  12.7 mm
07:32 6.3 °F /  -14.3 °C 4.9 °F /  -15.1 °C 993.8 in /  33650.1 hPa SSW 14.5 mph /  23.3 km/h 20.9 mph /  33.6 km/h 91 % 0.5 in /  12.7 mm
07:37 6.3 °F /  -14.3 °C 4.9 °F /  -15.1 °C 993.5 in /  33639.9 hPa ESE 11.3 mph /  18.2 km/h 20.9 mph /  33.6 km/h 91 % 0.5 in /  12.7 mm
07:42 6.3 °F /  -14.3 °C 4.9 °F /  -15.1 °C 993.5 in /  33639.9 hPa SE 9.7 mph /  15.6 km/h 20.9 mph /  33.6 km/h 91 % 0.3 in /  7.62 mm
07:47 6.3 °F /  -14.3 °C 4.9 °F /  -15.1 °C 993.5 in /  33639.9 hPa SE 3.2 mph /  5.1 km/h 19.3 mph /  31.1 km/h 91 % 0.0 in /  0 mm
07:52 6.2 °F /  -14.3 °C 4.8 °F /  -15.1 °C 993.5 in /  33639.9 hPa SSE 6.4 mph /  10.3 km/h 19.3 mph /  31.1 km/h 91 % 0.0 in /  0 mm
07:57 6.2 °F /  -14.3 °C 4.8 °F /  -15.1 °C 993.1 in /  33626.4 hPa SE 11.3 mph /  18.2 km/h 19.3 mph /  31.1 km/h 91 % 0.0 in /  0 mm
08:02 6.3 °F /  -14.3 °C 4.9 °F /  -15.1 °C 993.1 in /  33626.4 hPa SE 9.7 mph /  15.6 km/h 19.3 mph /  31.1 km/h 91 % 0.0 in /  0 mm
08:07 6.3 °F /  -14.3 °C 4.8 °F /  -15.1 °C 992.8 in /  33616.2 hPa SE 17.7 mph /  28.5 km/h 25.7 mph /  41.4 km/h 90 % 0.0 in /  0 mm
08:12 6.4 °F /  -14.2 °C 4.9 °F /  -15.1 °C 992.4 in /  33602.7 hPa SE 12.9 mph /  20.8 km/h 27.4 mph /  44.1 km/h 90 % 0.0 in /  0 mm
08:17 6.6 °F /  -14.1 °C 4.9 °F /  -15.1 °C 992.1 in /  33592.5 hPa ESE 12.9 mph /  20.8 km/h 27.4 mph /  44.1 km/h 89 % 0.0 in /  0 mm
08:22 6.7 °F /  -14.1 °C 5.0 °F /  -15 °C 992.1 in /  33592.5 hPa ESE 9.7 mph /  15.6 km/h 35.4 mph /  57 km/h 89 % 0.0 in /  0 mm
08:32 6.8 °F /  -14 °C 5.0 °F /  -15 °C 991.8 in /  33582.3 hPa ESE 24.1 mph /  38.8 km/h 30.6 mph /  49.2 km/h 88 % 0.0 in /  0 mm
08:37 7.1 °F /  -13.8 °C 5.1 °F /  -14.9 °C 991.4 in /  33568.8 hPa South 22.5 mph /  36.2 km/h 30.6 mph /  49.2 km/h 87 % 0.0 in /  0 mm
08:42 7.3 °F /  -13.7 °C 5.1 °F /  -14.9 °C 991.4 in /  33568.8 hPa SE 11.3 mph /  18.2 km/h 33.8 mph /  54.4 km/h 86 % 0.3 in /  7.62 mm
08:47 7.2 °F /  -13.8 °C 5.2 °F /  -14.9 °C 990.7 in /  33545.1 hPa SE 19.3 mph /  31.1 km/h 37.0 mph /  59.5 km/h 87 % 0.5 in /  12.7 mm
08:52 7.1 °F /  -13.8 °C 5.1 °F /  -14.9 °C 990.7 in /  33545.1 hPa SSE 9.7 mph /  15.6 km/h 37.0 mph /  59.5 km/h 87 % 0.5 in /  12.7 mm
08:57 7.1 °F /  -13.8 °C 5.2 °F /  -14.9 °C 990.7 in /  33545.1 hPa South 27.4 mph /  44.1 km/h 37.0 mph /  59.5 km/h 88 % 0.5 in /  12.7 mm
09:02 7.2 °F /  -13.8 °C 5.2 °F /  -14.9 °C 990.4 in /  33534.9 hPa SE 16.1 mph /  25.9 km/h 46.7 mph /  75.2 km/h 87 % 0.8 in /  20.32 mm
09:07 7.3 °F /  -13.7 °C 5.3 °F /  -14.8 °C 990.4 in /  33534.9 hPa SSW 25.7 mph /  41.4 km/h 46.7 mph /  75.2 km/h 87 % 1.0 in /  25.4 mm
09:12 7.4 °F /  -13.7 °C 5.4 °F /  -14.8 °C 990.1 in /  33524.8 hPa SSE 16.1 mph /  25.9 km/h 46.7 mph /  75.2 km/h 87 % 1.0 in /  25.4 mm
09:17 7.3 °F /  -13.7 °C 5.4 °F /  -14.8 °C 990.1 in /  33524.8 hPa SE 9.7 mph /  15.6 km/h 38.6 mph /  62.1 km/h 88 % 1.5 in /  38.1 mm
09:22 7.2 °F /  -13.8 °C 5.5 °F /  -14.7 °C 989.7 in /  33511.2 hPa SE 24.1 mph /  38.8 km/h 43.4 mph /  69.8 km/h 89 % 2.3 in /  58.42 mm
09:32 6.9 °F /  -13.9 °C 5.4 °F /  -14.8 °C 989.7 in /  33511.2 hPa SE 12.9 mph /  20.8 km/h 43.4 mph /  69.8 km/h 90 % 3.3 in /  83.82 mm
09:37 6.9 °F /  -13.9 °C 5.5 °F /  -14.7 °C 989.4 in /  33501.1 hPa SSE 27.4 mph /  44.1 km/h 38.6 mph /  62.1 km/h 91 % 3.6 in /  91.44 mm
09:42 6.9 °F /  -13.9 °C 5.7 °F /  -14.6 °C 989.4 in /  33501.1 hPa South 22.5 mph /  36.2 km/h 38.6 mph /  62.1 km/h 92 % 3.8 in /  96.52 mm
09:47 7.1 °F /  -13.8 °C 6.0 °F /  -14.4 °C 989.1 in /  33490.9 hPa SSW 33.8 mph /  54.4 km/h 38.6 mph /  62.1 km/h 93 % 4.3 in /  109.22 mm
09:52 7.2 °F /  -13.8 °C 6.1 °F /  -14.4 °C 989.1 in /  33490.9 hPa SSW 24.1 mph /  38.8 km/h 45.1 mph /  72.6 km/h 93 % 4.6 in /  116.84 mm
09:57 7.3 °F /  -13.7 °C 6.2 °F /  -14.3 °C 989.1 in /  33490.9 hPa SSW 40.2 mph /  64.7 km/h 45.1 mph /  72.6 km/h 93 % 4.6 in /  116.84 mm
10:02 7.7 °F /  -13.5 °C 6.5 °F /  -14.2 °C 989.1 in /  33490.9 hPa WSW 54.7 mph /  88 km/h 64.4 mph /  103.6 km/h 92 % 4.8 in /  121.92 mm
10:07 7.9 °F /  -13.4 °C 6.5 °F /  -14.2 °C 989.4 in /  33501.1 hPa SW 35.4 mph /  57 km/h 64.4 mph /  103.6 km/h 91 % 4.6 in /  116.84 mm
10:12 7.9 °F /  -13.4 °C 6.5 °F /  -14.2 °C 989.7 in /  33511.2 hPa WSW 57.9 mph /  93.2 km/h 64.4 mph /  103.6 km/h 91 % 4.6 in /  116.84 mm
10:17 7.9 °F /  -13.4 °C 6.4 °F /  -14.2 °C 990.1 in /  33524.8 hPa WSW 38.6 mph /  62.1 km/h 64.4 mph /  103.6 km/h 90 % 4.3 in /  109.22 mm
10:22 7.9 °F /  -13.4 °C 6.4 °F /  -14.2 °C 990.1 in /  33524.8 hPa WSW 35.4 mph /  57 km/h 64.4 mph /  103.6 km/h 90 % 3.6 in /  91.44 mm
10:27 7.9 °F /  -13.4 °C 6.4 °F /  -14.2 °C 990.7 in /  33545.1 hPa SW 40.2 mph /  64.7 km/h 64.4 mph /  103.6 km/h 90 % 3.3 in /  83.82 mm
10:32 7.9 °F /  -13.4 °C 6.4 °F /  -14.2 °C 991.1 in /  33558.6 hPa WSW 33.8 mph /  54.4 km/h 64.4 mph /  103.6 km/h 90 % 3.3 in /  83.82 mm
10:37 7.9 °F /  -13.4 °C 6.4 °F /  -14.2 °C 991.4 in /  33568.8 hPa WSW 27.4 mph /  44.1 km/h 64.4 mph /  103.6 km/h 90 % 3.0 in /  76.2 mm
10:42 7.9 °F /  -13.4 °C 6.5 °F /  -14.2 °C 991.8 in /  33582.3 hPa SW 33.8 mph /  54.4 km/h 64.4 mph /  103.6 km/h 91 % 2.3 in /  58.42 mm
10:47 7.8 °F /  -13.4 °C 6.4 °F /  -14.2 °C 992.1 in /  33592.5 hPa SW 29.0 mph /  46.7 km/h 64.4 mph /  103.6 km/h 91 % 2.3 in /  58.42 mm
10:57 7.7 °F /  -13.5 °C 6.6 °F /  -14.1 °C 992.4 in /  33602.7 hPa SW 16.1 mph /  25.9 km/h 54.7 mph /  88 km/h 93 % 2.3 in /  58.42 mm
11:02 7.7 °F /  -13.5 °C 6.5 °F /  -14.2 °C 992.8 in /  33616.2 hPa WSW 12.9 mph /  20.8 km/h 48.3 mph /  77.7 km/h 92 % 2.0 in /  50.8 mm
11:07 7.7 °F /  -13.5 °C 6.6 °F /  -14.1 °C 993.1 in /  33626.4 hPa SSW 22.5 mph /  36.2 km/h 48.3 mph /  77.7 km/h 93 % 1.8 in /  45.72 mm
11:12 7.7 °F /  -13.5 °C 6.6 °F /  -14.1 °C 993.1 in /  33626.4 hPa SW 20.9 mph /  33.6 km/h 48.3 mph /  77.7 km/h 93 % 2.0 in /  50.8 mm
11:17 7.7 °F /  -13.5 °C 6.6 °F /  -14.1 °C 993.5 in /  33639.9 hPa WSW 24.1 mph /  38.8 km/h 48.3 mph /  77.7 km/h 93 % 1.8 in /  45.72 mm
11:22 7.7 °F /  -13.5 °C 6.6 °F /  -14.1 °C 993.8 in /  33650.1 hPa WSW 27.4 mph /  44.1 km/h 51.5 mph /  82.9 km/h 93 % 1.8 in /  45.72 mm
11:27 7.6 °F /  -13.6 °C 6.5 °F /  -14.2 °C 993.8 in /  33650.1 hPa WSW 20.9 mph /  33.6 km/h 51.5 mph /  82.9 km/h 93 % 1.5 in /  38.1 mm
11:32 7.6 °F /  -13.6 °C 6.7 °F /  -14.1 °C 994.1 in /  33660.2 hPa West 37.0 mph /  59.5 km/h 59.5 mph /  95.8 km/h 94 % 1.3 in /  33.02 mm
11:37 7.6 °F /  -13.6 °C 6.5 °F /  -14.2 °C 994.1 in /  33660.2 hPa West 32.2 mph /  51.8 km/h 59.5 mph /  95.8 km/h 93 % 1.3 in /  33.02 mm
11:42 7.8 °F /  -13.4 °C 6.7 °F /  -14.1 °C 994.8 in /  33683.9 hPa West 14.5 mph /  23.3 km/h 59.5 mph /  95.8 km/h 93 % 1.0 in /  25.4 mm
11:47 7.7 °F /  -13.5 °C 6.6 °F /  -14.1 °C 994.8 in /  33683.9 hPa WSW 29.0 mph /  46.7 km/h 59.5 mph /  95.8 km/h 93 % 0.8 in /  20.32 mm
11:52 7.7 °F /  -13.5 °C 6.8 °F /  -14 °C 995.1 in /  33694.1 hPa West 19.3 mph /  31.1 km/h 59.5 mph /  95.8 km/h 94 % 0.5 in /  12.7 mm
11:57 7.6 °F /  -13.6 °C 6.7 °F /  -14.1 °C 995.1 in /  33694.1 hPa WSW 35.4 mph /  57 km/h 49.9 mph /  80.3 km/h 94 % 0.5 in /  12.7 mm
12:02 7.6 °F /  -13.6 °C 6.7 °F /  -14.1 °C 995.5 in /  33707.6 hPa West 40.2 mph /  64.7 km/h 43.4 mph /  69.8 km/h 94 % 0.5 in /  12.7 mm
12:07 7.6 °F /  -13.6 °C 6.7 °F /  -14.1 °C 995.5 in /  33707.6 hPa West 29.0 mph /  46.7 km/h 51.5 mph /  82.9 km/h 94 % 0.5 in /  12.7 mm
12:12 7.6 °F /  -13.6 °C 6.7 °F /  -14.1 °C 995.8 in /  33717.8 hPa West 27.4 mph /  44.1 km/h 51.5 mph /  82.9 km/h 94 % 0.5 in /  12.7 mm
12:17 7.4 °F /  -13.7 °C 6.5 °F /  -14.2 °C 996.2 in /  33731.3 hPa WSW 41.8 mph /  67.3 km/h 51.5 mph /  82.9 km/h 94 % 0.5 in /  12.7 mm
12:22 7.3 °F /  -13.7 °C 6.2 °F /  -14.3 °C 996.2 in /  33731.3 hPa WSW 43.4 mph /  69.8 km/h 51.5 mph /  82.9 km/h 93 % 0.8 in /  20.32 mm
12:27 7.3 °F /  -13.7 °C 5.9 °F /  -14.5 °C 996.5 in /  33741.5 hPa West 37.0 mph /  59.5 km/h 51.5 mph /  82.9 km/h 91 % 0.8 in /  20.32 mm
12:32 7.3 °F /  -13.7 °C 6.1 °F /  -14.4 °C 996.8 in /  33751.6 hPa West 25.7 mph /  41.4 km/h 59.5 mph /  95.8 km/h 92 % 0.5 in /  12.7 mm
12:37 7.0 °F /  -13.9 °C 5.6 °F /  -14.7 °C 997.2 in /  33765.2 hPa WNW 33.8 mph /  54.4 km/h 61.1 mph /  98.3 km/h 91 % 0.5 in /  12.7 mm
12:42 6.7 °F /  -14.1 °C 5.2 °F /  -14.9 °C 997.5 in /  33775.4 hPa West 49.9 mph /  80.3 km/h 61.1 mph /  98.3 km/h 90 % 0.8 in /  20.32 mm
12:47 6.5 °F /  -14.2 °C 5.0 °F /  -15 °C 997.9 in /  33788.9 hPa West 46.7 mph /  75.2 km/h 61.1 mph /  98.3 km/h 90 % 0.8 in /  20.32 mm
12:52 6.4 °F /  -14.2 °C 4.7 °F /  -15.2 °C 998.2 in /  33799.1 hPa WSW 43.4 mph /  69.8 km/h 64.4 mph /  103.6 km/h 89 % 0.8 in /  20.32 mm
12:57 6.3 °F /  -14.3 °C 4.1 °F /  -15.5 °C 998.5 in /  33809.2 hPa West 49.9 mph /  80.3 km/h 64.4 mph /  103.6 km/h 86 % 0.8 in /  20.32 mm
13:02 6.2 °F /  -14.3 °C 4.0 °F /  -15.6 °C 998.9 in /  33822.8 hPa West 32.2 mph /  51.8 km/h 66.0 mph /  106.2 km/h 86 % 0.8 in /  20.32 mm
13:07 6.3 °F /  -14.3 °C 3.8 °F /  -15.7 °C 998.9 in /  33822.8 hPa WNW 37.0 mph /  59.5 km/h 66.0 mph /  106.2 km/h 84 % 0.5 in /  12.7 mm
13:12 6.3 °F /  -14.3 °C 4.1 °F /  -15.5 °C 999.5 in /  33843.1 hPa West 19.3 mph /  31.1 km/h 69.2 mph /  111.4 km/h 86 % 0.8 in /  20.32 mm
13:17 6.2 °F /  -14.3 °C 4.2 °F /  -15.4 °C 999.5 in /  33843.1 hPa WSW 43.4 mph /  69.8 km/h 69.2 mph /  111.4 km/h 87 % 0.5 in /  12.7 mm
13:22 6.2 °F /  -14.3 °C 4.0 °F /  -15.6 °C 999.9 in /  33856.6 hPa West 37.0 mph /  59.5 km/h 69.2 mph /  111.4 km/h 86 % 0.5 in /  12.7 mm
13:27 6.3 °F /  -14.3 °C 4.0 °F /  -15.6 °C 999.9 in /  33856.6 hPa West 30.6 mph /  49.2 km/h 53.1 mph /  85.5 km/h 85 % 0.5 in /  12.7 mm
13:32 6.3 °F /  -14.3 °C 4.0 °F /  -15.6 °C 1000.2 in /  33866.8 hPa WSW 16.1 mph /  25.9 km/h 53.1 mph /  85.5 km/h 85 % 0.5 in /  12.7 mm
13:37 6.3 °F /  -14.3 °C 4.0 °F /  -15.6 °C 1000.6 in /  33880.3 hPa West 32.2 mph /  51.8 km/h 46.7 mph /  75.2 km/h 85 % 0.5 in /  12.7 mm
13:42 6.4 °F /  -14.2 °C 4.1 °F /  -15.5 °C 1000.9 in /  33890.5 hPa WNW 20.9 mph /  33.6 km/h 46.7 mph /  75.2 km/h 85 % 0.3 in /  7.62 mm
13:47 6.4 °F /  -14.2 °C 3.9 °F /  -15.6 °C 1000.9 in /  33890.5 hPa West 32.2 mph /  51.8 km/h 48.3 mph /  77.7 km/h 84 % 0.3 in /  7.62 mm
13:52 6.5 °F /  -14.2 °C 4.0 °F /  -15.6 °C 1001.2 in /  33900.6 hPa NW 32.2 mph /  51.8 km/h 48.3 mph /  77.7 km/h 84 % 0.3 in /  7.62 mm
13:57 6.6 °F /  -14.1 °C 4.1 °F /  -15.5 °C 1001.2 in /  33900.6 hPa West 12.9 mph /  20.8 km/h 56.3 mph /  90.6 km/h 84 % 0.3 in /  7.62 mm
14:02 6.6 °F /  -14.1 °C 4.1 °F /  -15.5 °C 1001.6 in /  33914.2 hPa WSW 22.5 mph /  36.2 km/h 56.3 mph /  90.6 km/h 84 % 0.3 in /  7.62 mm
14:07 6.6 °F /  -14.1 °C 4.3 °F /  -15.4 °C 1001.9 in /  33924.3 hPa WSW 35.4 mph /  57 km/h 56.3 mph /  90.6 km/h 85 % 0.0 in /  0 mm
14:12 6.6 °F /  -14.1 °C 4.3 °F /  -15.4 °C 1001.9 in /  33924.3 hPa WSW 32.2 mph /  51.8 km/h 48.3 mph /  77.7 km/h 85 % 0.0 in /  0 mm
14:17 6.6 °F /  -14.1 °C 4.3 °F /  -15.4 °C 1002.3 in /  33937.9 hPa WSW 14.5 mph /  23.3 km/h 48.3 mph /  77.7 km/h 85 % 0.0 in /  0 mm
14:27 6.7 °F /  -14.1 °C 4.4 °F /  -15.3 °C 1002.6 in /  33948 hPa West 37.0 mph /  59.5 km/h 38.6 mph /  62.1 km/h 85 % 0.0 in /  0 mm
14:32 6.8 °F /  -14 °C 4.3 °F /  -15.4 °C 1002.6 in /  33948 hPa WNW 27.4 mph /  44.1 km/h 41.8 mph /  67.3 km/h 84 % 0.0 in /  0 mm
14:37 6.9 °F /  -13.9 °C 4.4 °F /  -15.3 °C 1002.9 in /  33958.2 hPa West 24.1 mph /  38.8 km/h 43.4 mph /  69.8 km/h 84 % 0.0 in /  0 mm
14:42 7.0 °F /  -13.9 °C 4.3 °F /  -15.4 °C 1002.9 in /  33958.2 hPa West 22.5 mph /  36.2 km/h 43.4 mph /  69.8 km/h 83 % 0.0 in /  0 mm
14:47 7.1 °F /  -13.8 °C 4.4 °F /  -15.3 °C 1003.3 in /  33971.7 hPa West 32.2 mph /  51.8 km/h 43.4 mph /  69.8 km/h 83 % 0.0 in /  0 mm
14:52 7.1 °F /  -13.8 °C 4.2 °F /  -15.4 °C 1003.3 in /  33971.7 hPa West 25.7 mph /  41.4 km/h 43.4 mph /  69.8 km/h 82 % 0.0 in /  0 mm
14:57 7.2 °F /  -13.8 °C 4.3 °F /  -15.4 °C 1003.3 in /  33971.7 hPa West 16.1 mph /  25.9 km/h 43.4 mph /  69.8 km/h 82 % 0.0 in /  0 mm
15:02 7.3 °F /  -13.7 °C 4.3 °F /  -15.4 °C 1003.6 in /  33981.9 hPa WSW 24.1 mph /  38.8 km/h 46.7 mph /  75.2 km/h 81 % 0.0 in /  0 mm
15:07 7.4 °F /  -13.7 °C 4.4 °F /  -15.3 °C 1003.6 in /  33981.9 hPa WSW 20.9 mph /  33.6 km/h 48.3 mph /  77.7 km/h 81 % 0.0 in /  0 mm
15:12 7.4 °F /  -13.7 °C 4.4 °F /  -15.3 °C 1003.9 in /  33992.1 hPa WSW 9.7 mph /  15.6 km/h 48.3 mph /  77.7 km/h 81 % 0.0 in /  0 mm
15:17 7.4 °F /  -13.7 °C 4.4 °F /  -15.3 °C 1003.9 in /  33992.1 hPa WSW 29.0 mph /  46.7 km/h 48.3 mph /  77.7 km/h 81 % 0.0 in /  0 mm
15:22 7.5 °F /  -13.6 °C 4.3 °F /  -15.4 °C 1004.3 in /  34005.6 hPa West 38.6 mph /  62.1 km/h 38.6 mph /  62.1 km/h 80 % 0.0 in /  0 mm
15:27 7.6 °F /  -13.6 °C 4.4 °F /  -15.3 °C 1004.3 in /  34005.6 hPa West 14.5 mph /  23.3 km/h 40.2 mph /  64.7 km/h 80 % 0.0 in /  0 mm
15:32 7.7 °F /  -13.5 °C 4.5 °F /  -15.3 °C 1004.3 in /  34005.6 hPa West 20.9 mph /  33.6 km/h 40.2 mph /  64.7 km/h 80 % 0.0 in /  0 mm
15:37 7.7 °F /  -13.5 °C 4.3 °F /  -15.4 °C 1004.6 in /  34015.8 hPa WSW 17.7 mph /  28.5 km/h 40.2 mph /  64.7 km/h 79 % 0.0 in /  0 mm
15:42 7.8 °F /  -13.4 °C 4.2 °F /  -15.4 °C 1004.6 in /  34015.8 hPa West 22.5 mph /  36.2 km/h 43.4 mph /  69.8 km/h 78 % 0.0 in /  0 mm
15:47 7.8 °F /  -13.4 °C 4.0 °F /  -15.6 °C 1005.0 in /  34029.3 hPa SW 16.1 mph /  25.9 km/h 43.4 mph /  69.8 km/h 77 % 0.0 in /  0 mm
15:52 7.8 °F /  -13.4 °C 4.0 °F /  -15.6 °C 1005.0 in /  34029.3 hPa WSW 17.7 mph /  28.5 km/h 43.4 mph /  69.8 km/h 77 % 0.0 in /  0 mm
15:57 7.9 °F /  -13.4 °C 4.1 °F /  -15.5 °C 1005.0 in /  34029.3 hPa WNW 14.5 mph /  23.3 km/h 35.4 mph /  57 km/h 77 % 0.0 in /  0 mm
16:02 7.9 °F /  -13.4 °C 4.3 °F /  -15.4 °C 1005.3 in /  34039.5 hPa WSW 19.3 mph /  31.1 km/h 30.6 mph /  49.2 km/h 78 % 0.0 in /  0 mm
16:07 8.0 °F /  -13.3 °C 4.4 °F /  -15.3 °C 1005.3 in /  34039.5 hPa West 17.7 mph /  28.5 km/h 30.6 mph /  49.2 km/h 78 % 0.0 in /  0 mm
16:12 8.1 °F /  -13.3 °C 4.5 °F /  -15.3 °C 1005.6 in /  34049.6 hPa WSW 17.7 mph /  28.5 km/h 33.8 mph /  54.4 km/h 78 % 0.0 in /  0 mm
16:17 8.1 °F /  -13.3 °C 4.5 °F /  -15.3 °C 1005.6 in /  34049.6 hPa WNW 14.5 mph /  23.3 km/h 33.8 mph /  54.4 km/h 78 % 0.0 in /  0 mm
16:22 8.0 °F /  -13.3 °C 4.4 °F /  -15.3 °C 1005.6 in /  34049.6 hPa West 24.1 mph /  38.8 km/h 33.8 mph /  54.4 km/h 78 % 0.0 in /  0 mm
16:27 8.0 °F /  -13.3 °C 4.2 °F /  -15.4 °C 1006.0 in /  34063.2 hPa West 17.7 mph /  28.5 km/h 35.4 mph /  57 km/h 77 % 0.0 in /  0 mm
16:32 8.0 °F /  -13.3 °C 4.2 °F /  -15.4 °C 1006.0 in /  34063.2 hPa WSW 16.1 mph /  25.9 km/h 35.4 mph /  57 km/h 77 % 0.0 in /  0 mm
16:37 8.1 °F /  -13.3 °C 4.3 °F /  -15.4 °C 1006.0 in /  34063.2 hPa West 19.3 mph /  31.1 km/h 35.4 mph /  57 km/h 77 % 0.0 in /  0 mm
16:42 8.2 °F /  -13.2 °C 4.4 °F /  -15.3 °C 1006.0 in /  34063.2 hPa WSW 17.7 mph /  28.5 km/h 30.6 mph /  49.2 km/h 77 % 0.0 in /  0 mm
16:47 8.4 °F /  -13.1 °C 4.4 °F /  -15.3 °C 1006.3 in /  34073.3 hPa SSW 9.7 mph /  15.6 km/h 29.0 mph /  46.7 km/h 76 % 0.0 in /  0 mm
16:52 8.6 °F /  -13 °C 4.2 °F /  -15.4 °C 1006.3 in /  34073.3 hPa West 9.7 mph /  15.6 km/h 29.0 mph /  46.7 km/h 74 % 0.0 in /  0 mm
16:57 8.6 °F /  -13 °C 4.0 °F /  -15.6 °C 1006.3 in /  34073.3 hPa West 27.4 mph /  44.1 km/h 27.4 mph /  44.1 km/h 73 % 0.0 in /  0 mm
17:02 8.5 °F /  -13.1 °C 4.1 °F /  -15.5 °C 1006.7 in /  34086.9 hPa West 24.1 mph /  38.8 km/h 32.2 mph /  51.8 km/h 74 % 0.0 in /  0 mm
17:07 8.4 °F /  -13.1 °C 4.0 °F /  -15.6 °C 1006.7 in /  34086.9 hPa WSW 14.5 mph /  23.3 km/h 32.2 mph /  51.8 km/h 74 % 0.0 in /  0 mm
17:12 8.3 °F /  -13.2 °C 4.1 °F /  -15.5 °C 1006.7 in /  34086.9 hPa WSW 11.3 mph /  18.2 km/h 32.2 mph /  51.8 km/h 75 % 0.0 in /  0 mm
17:17 8.1 °F /  -13.3 °C 3.9 °F /  -15.6 °C 1006.7 in /  34086.9 hPa WSW 14.5 mph /  23.3 km/h 27.4 mph /  44.1 km/h 75 % 0.0 in /  0 mm
17:22 8.0 °F /  -13.3 °C 4.0 °F /  -15.6 °C 1006.7 in /  34086.9 hPa WSW 9.7 mph /  15.6 km/h 20.9 mph /  33.6 km/h 76 % 0.0 in /  0 mm
17:27 8.1 °F /  -13.3 °C 4.1 °F /  -15.5 °C 1006.7 in /  34086.9 hPa SW 8.0 mph /  12.9 km/h 24.1 mph /  38.8 km/h 76 % 0.0 in /  0 mm
17:32 8.0 °F /  -13.3 °C 4.0 °F /  -15.6 °C 1006.7 in /  34086.9 hPa WSW 16.1 mph /  25.9 km/h 24.1 mph /  38.8 km/h 76 % 0.0 in /  0 mm
17:37 7.9 °F /  -13.4 °C 3.9 °F /  -15.6 °C 1006.7 in /  34086.9 hPa WSW 9.7 mph /  15.6 km/h 24.1 mph /  38.8 km/h 76 % 0.0 in /  0 mm
17:42 7.8 °F /  -13.4 °C 3.8 °F /  -15.7 °C 1006.7 in /  34086.9 hPa WSW 8.0 mph /  12.9 km/h 19.3 mph /  31.1 km/h 76 % 0.0 in /  0 mm
17:47 7.7 °F /  -13.5 °C 3.9 °F /  -15.6 °C 1006.7 in /  34086.9 hPa West 9.7 mph /  15.6 km/h 19.3 mph /  31.1 km/h 77 % 0.0 in /  0 mm
17:52 7.6 °F /  -13.6 °C 3.8 °F /  -15.7 °C 1006.7 in /  34086.9 hPa SW 8.0 mph /  12.9 km/h 17.7 mph /  28.5 km/h 77 % 0.0 in /  0 mm
17:57 7.6 °F /  -13.6 °C 3.8 °F /  -15.7 °C 1006.7 in /  34086.9 hPa WSW 6.4 mph /  10.3 km/h 16.1 mph /  25.9 km/h 77 % 0.0 in /  0 mm
18:02 7.4 °F /  -13.7 °C 3.8 °F /  -15.7 °C 1006.7 in /  34086.9 hPa WSW 9.7 mph /  15.6 km/h 16.1 mph /  25.9 km/h 78 % 0.0 in /  0 mm
18:07 7.4 °F /  -13.7 °C 3.8 °F /  -15.7 °C 1006.7 in /  34086.9 hPa West 9.7 mph /  15.6 km/h 16.1 mph /  25.9 km/h 78 % 0.0 in /  0 mm
18:12 7.3 °F /  -13.7 °C 3.7 °F /  -15.7 °C 1006.7 in /  34086.9 hPa SW 3.2 mph /  5.1 km/h 14.5 mph /  23.3 km/h 78 % 0.0 in /  0 mm
18:17 7.2 °F /  -13.8 °C 3.6 °F /  -15.8 °C 1006.7 in /  34086.9 hPa SW 6.4 mph /  10.3 km/h 12.9 mph /  20.8 km/h 78 % 0.0 in /  0 mm
18:22 7.2 °F /  -13.8 °C 3.8 °F /  -15.7 °C 1006.7 in /  34086.9 hPa SW 4.8 mph /  7.7 km/h 16.1 mph /  25.9 km/h 79 % 0.0 in /  0 mm
18:27 6.9 °F /  -13.9 °C 3.7 °F /  -15.7 °C 1006.7 in /  34086.9 hPa SW 4.8 mph /  7.7 km/h 16.1 mph /  25.9 km/h 80 % 0.0 in /  0 mm
18:32 6.8 °F /  -14 °C 3.6 °F /  -15.8 °C 1006.7 in /  34086.9 hPa SW 4.8 mph /  7.7 km/h 16.1 mph /  25.9 km/h 80 % 0.0 in /  0 mm
18:37 6.8 °F /  -14 °C 3.6 °F /  -15.8 °C 1006.7 in /  34086.9 hPa WSW 4.8 mph /  7.7 km/h 11.3 mph /  18.2 km/h 80 % 0.0 in /  0 mm
18:42 6.7 °F /  -14.1 °C 3.7 °F /  -15.7 °C 1006.7 in /  34086.9 hPa SW 4.8 mph /  7.7 km/h 11.3 mph /  18.2 km/h 81 % 0.0 in /  0 mm
18:47 6.7 °F /  -14.1 °C 3.7 °F /  -15.7 °C 1006.7 in /  34086.9 hPa SW 4.8 mph /  7.7 km/h 9.7 mph /  15.6 km/h 81 % 0.0 in /  0 mm
18:52 6.6 °F /  -14.1 °C 3.6 °F /  -15.8 °C 1006.7 in /  34086.9 hPa SW 4.8 mph /  7.7 km/h 9.7 mph /  15.6 km/h 81 % 0.0 in /  0 mm
18:57 6.6 °F /  -14.1 °C 3.6 °F /  -15.8 °C 1006.7 in /  34086.9 hPa SW 4.8 mph /  7.7 km/h 8.0 mph /  12.9 km/h 81 % 0.0 in /  0 mm
19:02 6.5 °F /  -14.2 °C 3.5 °F /  -15.8 °C 1006.7 in /  34086.9 hPa SSW 3.2 mph /  5.1 km/h 8.0 mph /  12.9 km/h 81 % 0.0 in /  0 mm
19:07 5.8 °F /  -14.6 °C 3.0 °F /  -16.1 °C 1006.7 in /  34086.9 hPa SSW 3.2 mph /  5.1 km/h 8.0 mph /  12.9 km/h 82 % 0.0 in /  0 mm
19:12 5.1 °F /  -14.9 °C 2.8 °F /  -16.2 °C 1006.7 in /  34086.9 hPa SSW 1.6 mph /  2.6 km/h 8.0 mph /  12.9 km/h 85 % 0.0 in /  0 mm
19:17 4.8 °F /  -15.1 °C 3.0 °F /  -16.1 °C 1006.7 in /  34086.9 hPa SSW 3.2 mph /  5.1 km/h 4.8 mph /  7.7 km/h 88 % 0.0 in /  0 mm
19:22 4.8 °F /  -15.1 °C 3.0 °F /  -16.1 °C 1006.7 in /  34086.9 hPa SSW 3.2 mph /  5.1 km/h 4.8 mph /  7.7 km/h 88 % 0.0 in /  0 mm
19:32 5.1 °F /  -14.9 °C 3.3 °F /  -15.9 °C 1006.7 in /  34086.9 hPa SW 4.8 mph /  7.7 km/h 6.4 mph /  10.3 km/h 88 % 0.0 in /  0 mm
19:37 5.3 °F /  -14.8 °C 3.3 °F /  -15.9 °C 1006.7 in /  34086.9 hPa SW 6.4 mph /  10.3 km/h 6.4 mph /  10.3 km/h 87 % 0.0 in /  0 mm
19:42 5.4 °F /  -14.8 °C 3.2 °F /  -16 °C 1006.7 in /  34086.9 hPa SW 9.7 mph /  15.6 km/h 9.7 mph /  15.6 km/h 86 % 0.0 in /  0 mm
19:47 5.6 °F /  -14.7 °C 3.3 °F /  -15.9 °C 1006.7 in /  34086.9 hPa SW 4.8 mph /  7.7 km/h 9.7 mph /  15.6 km/h 85 % 0.0 in /  0 mm
19:52 5.6 °F /  -14.7 °C 3.1 °F /  -16.1 °C 1006.7 in /  34086.9 hPa SSW 4.8 mph /  7.7 km/h 11.3 mph /  18.2 km/h 84 % 0.0 in /  0 mm
19:57 5.6 °F /  -14.7 °C 3.1 °F /  -16.1 °C 1007.0 in /  34097 hPa SSW 6.4 mph /  10.3 km/h 11.3 mph /  18.2 km/h 84 % 0.0 in /  0 mm
20:02 5.4 °F /  -14.8 °C 3.1 °F /  -16.1 °C 1006.7 in /  34086.9 hPa SW 6.4 mph /  10.3 km/h 11.3 mph /  18.2 km/h 85 % 0.0 in /  0 mm
20:07 5.1 °F /  -14.9 °C 2.8 °F /  -16.2 °C 1006.7 in /  34086.9 hPa South 3.2 mph /  5.1 km/h 11.3 mph /  18.2 km/h 85 % 0.0 in /  0 mm
20:12 4.8 °F /  -15.1 °C 2.7 °F /  -16.3 °C 1006.7 in /  34086.9 hPa SSW 1.6 mph /  2.6 km/h 9.7 mph /  15.6 km/h 86 % 0.0 in /  0 mm
20:17 4.6 °F /  -15.2 °C 2.5 °F /  -16.4 °C 1006.7 in /  34086.9 hPa SW 3.2 mph /  5.1 km/h 8.0 mph /  12.9 km/h 86 % 0.0 in /  0 mm
20:22 4.3 °F /  -15.4 °C 2.3 °F /  -16.5 °C 1006.3 in /  34073.3 hPa SSW 1.6 mph /  2.6 km/h 6.4 mph /  10.3 km/h 87 % 0.0 in /  0 mm
20:27 4.1 °F /  -15.5 °C 2.3 °F /  -16.5 °C 1006.7 in /  34086.9 hPa SSW 3.2 mph /  5.1 km/h 4.8 mph /  7.7 km/h 88 % 0.0 in /  0 mm
20:32 4.1 °F /  -15.5 °C 2.5 °F /  -16.4 °C 1006.7 in /  34086.9 hPa SSW 3.2 mph /  5.1 km/h 4.8 mph /  7.7 km/h 89 % 0.0 in /  0 mm
20:42 3.9 °F /  -15.6 °C 2.1 °F /  -16.6 °C 1006.3 in /  34073.3 hPa Calm   4.8 mph /  7.7 km/h 88 % 0.0 in /  0 mm
20:47 3.8 °F /  -15.7 °C 2.0 °F /  -16.7 °C 1006.3 in /  34073.3 hPa Calm   4.8 mph /  7.7 km/h 88 % 0.0 in /  0 mm
20:52 3.3 °F /  -15.9 °C 1.5 °F /  -16.9 °C 1006.3 in /  34073.3 hPa Calm   3.2 mph /  5.1 km/h 88 % 0.0 in /  0 mm
20:57 3.1 °F /  -16.1 °C 1.5 °F /  -16.9 °C 1006.7 in /  34086.9 hPa Calm   3.2 mph /  5.1 km/h 89 % 0.0 in /  0 mm
21:02 2.9 °F /  -16.2 °C 1.4 °F /  -17 °C 1006.7 in /  34086.9 hPa Calm   3.2 mph /  5.1 km/h 90 % 0.0 in /  0 mm
21:07 2.9 °F /  -16.2 °C 1.6 °F /  -16.9 °C 1006.7 in /  34086.9 hPa Calm   3.2 mph /  5.1 km/h 91 % 0.0 in /  0 mm
21:12 2.9 °F /  -16.2 °C 1.7 °F /  -16.8 °C 1006.3 in /  34073.3 hPa Calm   1.6 mph /  2.6 km/h 92 % 0.0 in /  0 mm
21:17 2.9 °F /  -16.2 °C 1.6 °F /  -16.9 °C 1006.3 in /  34073.3 hPa Calm     91 % 0.0 in /  0 mm
21:22 2.9 °F /  -16.2 °C 1.6 °F /  -16.9 °C 1006.3 in /  34073.3 hPa Calm     91 % 0.0 in /  0 mm
21:27 3.1 °F /  -16.1 °C 1.9 °F /  -16.7 °C 1006.3 in /  34073.3 hPa Calm     92 % 0.0 in /  0 mm
21:32 3.2 °F /  -16 °C 1.7 °F /  -16.8 °C 1006.3 in /  34073.3 hPa Calm     90 % 0.0 in /  0 mm
21:37 3.1 °F /  -16.1 °C 1.6 °F /  -16.9 °C 1006.0 in /  34063.2 hPa Calm     90 % 0.0 in /  0 mm
21:42 3.3 °F /  -15.9 °C 2.0 °F /  -16.7 °C 1006.0 in /  34063.2 hPa Calm     91 % 0.0 in /  0 mm
21:47 3.4 °F /  -15.9 °C 1.8 °F /  -16.8 °C 1006.0 in /  34063.2 hPa SSW 3.2 mph /  5.1 km/h 3.2 mph /  5.1 km/h 89 % 0.0 in /  0 mm
21:52 3.3 °F /  -15.9 °C 1.7 °F /  -16.8 °C 1005.6 in /  34049.6 hPa SSW 1.6 mph /  2.6 km/h 3.2 mph /  5.1 km/h 89 % 0.0 in /  0 mm
21:57 3.3 °F /  -15.9 °C 1.7 °F /  -16.8 °C 1005.6 in /  34049.6 hPa SSW 1.6 mph /  2.6 km/h 3.2 mph /  5.1 km/h 89 % 0.0 in /  0 mm
22:02 3.5 °F /  -15.8 °C 1.9 °F /  -16.7 °C 1005.6 in /  34049.6 hPa South 1.6 mph /  2.6 km/h 6.4 mph /  10.3 km/h 89 % 0.0 in /  0 mm
22:07 3.6 °F /  -15.8 °C 1.8 °F /  -16.8 °C 1005.6 in /  34049.6 hPa SW 4.8 mph /  7.7 km/h 6.4 mph /  10.3 km/h 88 % 0.0 in /  0 mm
22:12 3.8 °F /  -15.7 °C 1.8 °F /  -16.8 °C 1005.6 in /  34049.6 hPa SSW 6.4 mph /  10.3 km/h 9.7 mph /  15.6 km/h 87 % 0.0 in /  0 mm
22:17 4.0 °F /  -15.6 °C 2.0 °F /  -16.7 °C 1005.6 in /  34049.6 hPa SSW 4.8 mph /  7.7 km/h 9.7 mph /  15.6 km/h 87 % 0.0 in /  0 mm
22:22 4.0 °F /  -15.6 °C 2.0 °F /  -16.7 °C 1005.6 in /  34049.6 hPa SW 6.4 mph /  10.3 km/h 11.3 mph /  18.2 km/h 87 % 0.0 in /  0 mm
22:27 4.1 °F /  -15.5 °C 2.1 °F /  -16.6 °C 1005.6 in /  34049.6 hPa SSW 1.6 mph /  2.6 km/h 11.3 mph /  18.2 km/h 87 % 0.0 in /  0 mm
22:32 4.1 °F /  -15.5 °C 2.1 °F /  -16.6 °C 1005.6 in /  34049.6 hPa SSW 6.4 mph /  10.3 km/h 9.7 mph /  15.6 km/h 87 % 0.0 in /  0 mm
22:37 4.1 °F /  -15.5 °C 2.1 °F /  -16.6 °C 1005.6 in /  34049.6 hPa SSW 4.8 mph /  7.7 km/h 9.7 mph /  15.6 km/h 87 % 0.0 in /  0 mm
22:42 4.2 °F /  -15.4 °C 2.2 °F /  -16.6 °C 1005.6 in /  34049.6 hPa SW 3.2 mph /  5.1 km/h 9.7 mph /  15.6 km/h 87 % 0.0 in /  0 mm
22:47 4.3 °F /  -15.4 °C 2.2 °F /  -16.6 °C 1005.3 in /  34039.5 hPa South 1.6 mph /  2.6 km/h 9.7 mph /  15.6 km/h 86 % 0.0 in /  0 mm
22:52 4.3 °F /  -15.4 °C 2.2 °F /  -16.6 °C 1005.3 in /  34039.5 hPa South 1.6 mph /  2.6 km/h 9.7 mph /  15.6 km/h 86 % 0.0 in /  0 mm
22:57 4.3 °F /  -15.4 °C 2.3 °F /  -16.5 °C 1005.3 in /  34039.5 hPa South 1.6 mph /  2.6 km/h 6.4 mph /  10.3 km/h 87 % 0.0 in /  0 mm
23:02 4.3 °F /  -15.4 °C 2.3 °F /  -16.5 °C 1005.3 in /  34039.5 hPa SW 1.6 mph /  2.6 km/h 6.4 mph /  10.3 km/h 87 % 0.0 in /  0 mm
23:07 4.3 °F /  -15.4 °C 2.3 °F /  -16.5 °C 1005.0 in /  34029.3 hPa SSW 3.2 mph /  5.1 km/h 4.8 mph /  7.7 km/h 87 % 0.0 in /  0 mm
23:12 4.4 °F /  -15.3 °C 2.4 °F /  -16.4 °C 1005.0 in /  34029.3 hPa SSW 1.6 mph /  2.6 km/h 3.2 mph /  5.1 km/h 87 % 0.0 in /  0 mm
23:17 4.4 °F /  -15.3 °C 2.4 °F /  -16.4 °C 1005.0 in /  34029.3 hPa Calm   3.2 mph /  5.1 km/h 87 % 0.0 in /  0 mm
23:22 4.3 °F /  -15.4 °C 2.3 °F /  -16.5 °C 1005.0 in /  34029.3 hPa Calm   3.2 mph /  5.1 km/h 87 % 0.0 in /  0 mm
23:27 4.4 °F /  -15.3 °C 2.4 °F /  -16.4 °C 1005.0 in /  34029.3 hPa Calm   1.6 mph /  2.6 km/h 87 % 0.0 in /  0 mm
23:32 4.4 °F /  -15.3 °C 2.4 °F /  -16.4 °C 1005.0 in /  34029.3 hPa Calm   1.6 mph /  2.6 km/h 87 % 0.0 in /  0 mm
23:37 4.4 °F /  -15.3 °C 2.4 °F /  -16.4 °C 1005.0 in /  34029.3 hPa Calm   1.6 mph /  2.6 km/h 87 % 0.0 in /  0 mm
23:42 4.5 °F /  -15.3 °C 2.5 °F /  -16.4 °C 1005.0 in /  34029.3 hPa Calm     87 % 0.0 in /  0 mm
23:47 4.5 °F /  -15.3 °C 2.5 °F /  -16.4 °C 1005.0 in /  34029.3 hPa Calm     87 % 0.0 in /  0 mm
23:52 4.5 °F /  -15.3 °C 2.7 °F /  -16.3 °C 1005.0 in /  34029.3 hPa Calm     88 % 0.0 in /  0 mm
23:57 4.6 °F /  -15.2 °C 2.8 °F /  -16.2 °C 1004.6 in /  34015.8 hPa Calm   1.6 mph /  2.6 km/h 88 % 0.0 in /  0 mm
Meteo18
Compliments of Weather Underground - 4 mb

Script developed by  Jim McMurry - jmcmurry@mwt.net Adapted for the template by  Wim van der Kuil - Leuven-Template.eu

You find our weather info also at:

European Weather Network

Weather Underground

Equipment we use:

Weather-station
Davis Vue

Weather-program
Meteobridge

Weather-server
Raspberry PI 2 B+

Provider
1 and 1

Davis Vue

Meteobridge

Raspberry PI 2 B+

1 and 1